sensor_id;sensor_type;location;lat;lon;timestamp;P1;durP1;ratioP1;P2;durP2;ratioP2
16870;SDS011;8552;48.120;-1.456;2022-11-15T00:02:25;7.43;;;3.20;;
16870;SDS011;8552;48.120;-1.456;2022-11-15T00:04:52;7.97;;;3.03;;
16870;SDS011;8552;48.120;-1.456;2022-11-15T00:07:18;4.30;;;2.42;;
16870;SDS011;8552;48.120;-1.456;2022-11-15T00:09:44;9.02;;;3.92;;
16870;SDS011;8552;48.120;-1.456;2022-11-15T00:12:10;10.30;;;2.97;;
16870;SDS011;8552;48.120;-1.456;2022-11-15T00:14:36;6.78;;;2.75;;
16870;SDS011;8552;48.120;-1.456;2022-11-15T00:17:02;9.82;;;3.03;;
16870;SDS011;8552;48.120;-1.456;2022-11-15T00:19:28;10.07;;;2.30;;
16870;SDS011;8552;48.120;-1.456;2022-11-15T00:21:54;8.48;;;2.60;;
16870;SDS011;8552;48.120;-1.456;2022-11-15T00:24:20;10.88;;;2.70;;
16870;SDS011;8552;48.120;-1.456;2022-11-15T00:26:46;8.37;;;3.30;;
16870;SDS011;8552;48.120;-1.456;2022-11-15T00:29:12;9.97;;;2.77;;
16870;SDS011;8552;48.120;-1.456;2022-11-15T00:31:38;7.15;;;2.22;;
16870;SDS011;8552;48.120;-1.456;2022-11-15T00:34:04;5.53;;;2.13;;
16870;SDS011;8552;48.120;-1.456;2022-11-15T00:36:32;8.48;;;2.53;;
16870;SDS011;8552;48.120;-1.456;2022-11-15T00:38:59;9.10;;;2.40;;
16870;SDS011;8552;48.120;-1.456;2022-11-15T00:41:25;5.28;;;2.13;;
16870;SDS011;8552;48.120;-1.456;2022-11-15T00:43:51;8.25;;;3.10;;
16870;SDS011;8552;48.120;-1.456;2022-11-15T00:46:17;11.32;;;2.53;;
16870;SDS011;8552;48.120;-1.456;2022-11-15T00:48:43;5.72;;;1.80;;
16870;SDS011;8552;48.120;-1.456;2022-11-15T00:51:09;7.17;;;2.53;;
16870;SDS011;8552;48.120;-1.456;2022-11-15T00:53:35;6.80;;;2.17;;
16870;SDS011;8552;48.120;-1.456;2022-11-15T00:56:01;7.80;;;2.23;;
16870;SDS011;8552;48.120;-1.456;2022-11-15T00:58:27;6.63;;;2.15;;
16870;SDS011;8552;48.120;-1.456;2022-11-15T01:00:53;6.35;;;1.60;;
16870;SDS011;8552;48.120;-1.456;2022-11-15T01:03:19;7.82;;;2.67;;
16870;SDS011;8552;48.120;-1.456;2022-11-15T01:05:45;5.95;;;2.00;;
16870;SDS011;8552;48.120;-1.456;2022-11-15T01:08:12;9.37;;;1.70;;
16870;SDS011;8552;48.120;-1.456;2022-11-15T01:10:39;7.07;;;1.90;;
16870;SDS011;8552;48.120;-1.456;2022-11-15T01:13:05;6.65;;;1.98;;
16870;SDS011;8552;48.120;-1.456;2022-11-15T01:15:31;6.75;;;1.85;;
16870;SDS011;8552;48.120;-1.456;2022-11-15T01:17:57;4.28;;;1.63;;
16870;SDS011;8552;48.120;-1.456;2022-11-15T01:20:23;5.53;;;1.85;;
16870;SDS011;8552;48.120;-1.456;2022-11-15T01:22:49;4.80;;;1.77;;
16870;SDS011;8552;48.120;-1.456;2022-11-15T01:25:15;7.05;;;1.73;;
16870;SDS011;8552;48.120;-1.456;2022-11-15T01:27:41;6.35;;;1.90;;
16870;SDS011;8552;48.120;-1.456;2022-11-15T01:30:07;11.60;;;1.92;;
16870;SDS011;8552;48.120;-1.456;2022-11-15T01:32:33;10.40;;;1.77;;
16870;SDS011;8552;48.120;-1.456;2022-11-15T01:34:59;10.57;;;2.13;;
16870;SDS011;8552;48.120;-1.456;2022-11-15T01:37:25;3.95;;;2.05;;
16870;SDS011;8552;48.120;-1.456;2022-11-15T01:39:51;12.45;;;2.03;;
16870;SDS011;8552;48.120;-1.456;2022-11-15T01:42:17;2.33;;;1.20;;
16870;SDS011;8552;48.120;-1.456;2022-11-15T01:44:45;7.78;;;2.42;;
16870;SDS011;8552;48.120;-1.456;2022-11-15T01:47:14;4.50;;;2.03;;
16870;SDS011;8552;48.120;-1.456;2022-11-15T01:49:44;5.95;;;1.70;;
16870;SDS011;8552;48.120;-1.456;2022-11-15T01:52:13;5.40;;;1.27;;
16870;SDS011;8552;48.120;-1.456;2022-11-15T01:54:40;8.43;;;2.10;;
16870;SDS011;8552;48.120;-1.456;2022-11-15T01:57:07;7.93;;;1.83;;
16870;SDS011;8552;48.120;-1.456;2022-11-15T01:59:36;7.38;;;1.65;;
16870;SDS011;8552;48.120;-1.456;2022-11-15T02:02:02;10.35;;;2.65;;
16870;SDS011;8552;48.120;-1.456;2022-11-15T02:04:29;7.03;;;1.55;;
16870;SDS011;8552;48.120;-1.456;2022-11-15T02:06:57;10.55;;;2.10;;
16870;SDS011;8552;48.120;-1.456;2022-11-15T02:09:23;8.43;;;1.65;;
16870;SDS011;8552;48.120;-1.456;2022-11-15T02:11:49;5.45;;;2.20;;
16870;SDS011;8552;48.120;-1.456;2022-11-15T02:14:17;6.97;;;1.58;;
16870;SDS011;8552;48.120;-1.456;2022-11-15T02:32:38;8.60;;;1.65;;
16870;SDS011;8552;48.120;-1.456;2022-11-15T02:42:53;5.55;;;1.40;;
16870;SDS011;8552;48.120;-1.456;2022-11-15T02:45:40;7.47;;;1.85;;
16870;SDS011;8552;48.120;-1.456;2022-11-15T02:48:10;6.40;;;1.20;;
16870;SDS011;8552;48.120;-1.456;2022-11-15T02:50:36;8.93;;;1.90;;
16870;SDS011;8552;48.120;-1.456;2022-11-15T02:53:03;8.27;;;1.65;;
16870;SDS011;8552;48.120;-1.456;2022-11-15T02:55:31;5.50;;;1.33;;
16870;SDS011;8552;48.120;-1.456;2022-11-15T03:00:26;9.30;;;1.80;;
16870;SDS011;8552;48.120;-1.456;2022-11-15T03:08:09;6.18;;;1.50;;
16870;SDS011;8552;48.120;-1.456;2022-11-15T03:13:12;5.35;;;1.38;;
16870;SDS011;8552;48.120;-1.456;2022-11-15T03:15:44;6.60;;;1.20;;
16870;SDS011;8552;48.120;-1.456;2022-11-15T03:18:57;8.57;;;1.58;;
16870;SDS011;8552;48.120;-1.456;2022-11-15T03:21:04;6.45;;;1.20;;
16870;SDS011;8552;48.120;-1.456;2022-11-15T03:23:31;3.15;;;1.23;;
16870;SDS011;8552;48.120;-1.456;2022-11-15T03:25:58;7.18;;;1.10;;
16870;SDS011;8552;48.120;-1.456;2022-11-15T03:28:31;4.97;;;1.20;;
16870;SDS011;8552;48.120;-1.456;2022-11-15T03:30:58;6.82;;;1.52;;
16870;SDS011;8552;48.120;-1.456;2022-11-15T03:33:25;6.88;;;1.67;;
16870;SDS011;8552;48.120;-1.456;2022-11-15T03:35:53;3.75;;;1.10;;
16870;SDS011;8552;48.120;-1.456;2022-11-15T03:38:23;10.90;;;1.70;;
16870;SDS011;8552;48.120;-1.456;2022-11-15T03:43:56;11.38;;;2.55;;
16870;SDS011;8552;48.120;-1.456;2022-11-15T03:46:15;5.65;;;1.38;;
16870;SDS011;8552;48.120;-1.456;2022-11-15T03:48:44;6.90;;;1.73;;
16870;SDS011;8552;48.120;-1.456;2022-11-15T03:51:12;5.15;;;1.58;;
16870;SDS011;8552;48.120;-1.456;2022-11-15T03:53:40;8.43;;;2.22;;
16870;SDS011;8552;48.120;-1.456;2022-11-15T03:56:06;5.95;;;1.60;;
16870;SDS011;8552;48.120;-1.456;2022-11-15T03:58:32;8.20;;;2.15;;
16870;SDS011;8552;48.120;-1.456;2022-11-15T04:00:58;7.10;;;1.65;;
16870;SDS011;8552;48.120;-1.456;2022-11-15T04:03:25;7.15;;;2.00;;
16870;SDS011;8552;48.120;-1.456;2022-11-15T04:05:51;5.22;;;1.23;;
16870;SDS011;8552;48.120;-1.456;2022-11-15T04:08:17;6.35;;;1.73;;
16870;SDS011;8552;48.120;-1.456;2022-11-15T04:10:43;7.13;;;1.25;;
16870;SDS011;8552;48.120;-1.456;2022-11-15T04:13:09;5.43;;;1.60;;
16870;SDS011;8552;48.120;-1.456;2022-11-15T04:15:35;6.25;;;1.77;;
16870;SDS011;8552;48.120;-1.456;2022-11-15T04:18:01;7.78;;;2.08;;
16870;SDS011;8552;48.120;-1.456;2022-11-15T04:20:28;6.30;;;1.40;;
16870;SDS011;8552;48.120;-1.456;2022-11-15T04:23:14;6.35;;;0.85;;
16870;SDS011;8552;48.120;-1.456;2022-11-15T04:26:00;7.68;;;2.08;;
16870;SDS011;8552;48.120;-1.456;2022-11-15T04:28:26;4.20;;;1.70;;
16870;SDS011;8552;48.120;-1.456;2022-11-15T04:30:52;8.40;;;1.42;;
16870;SDS011;8552;48.120;-1.456;2022-11-15T04:33:18;6.35;;;1.73;;
16870;SDS011;8552;48.120;-1.456;2022-11-15T04:35:45;3.50;;;1.48;;
16870;SDS011;8552;48.120;-1.456;2022-11-15T04:38:31;4.85;;;1.67;;
16870;SDS011;8552;48.120;-1.456;2022-11-15T04:40:57;8.45;;;1.70;;
16870;SDS011;8552;48.120;-1.456;2022-11-15T04:43:23;5.18;;;1.88;;
16870;SDS011;8552;48.120;-1.456;2022-11-15T04:45:49;7.93;;;1.40;;
16870;SDS011;8552;48.120;-1.456;2022-11-15T04:48:15;4.85;;;1.42;;
16870;SDS011;8552;48.120;-1.456;2022-11-15T04:50:41;6.15;;;1.35;;
16870;SDS011;8552;48.120;-1.456;2022-11-15T04:53:07;5.95;;;1.95;;
16870;SDS011;8552;48.120;-1.456;2022-11-15T04:55:33;6.32;;;1.63;;
16870;SDS011;8552;48.120;-1.456;2022-11-15T04:57:59;9.13;;;1.88;;
16870;SDS011;8552;48.120;-1.456;2022-11-15T05:00:26;4.65;;;1.45;;
16870;SDS011;8552;48.120;-1.456;2022-11-15T05:02:52;4.45;;;1.58;;
16870;SDS011;8552;48.120;-1.456;2022-11-15T05:05:37;4.78;;;1.42;;
16870;SDS011;8552;48.120;-1.456;2022-11-15T05:08:03;5.60;;;2.15;;
16870;SDS011;8552;48.120;-1.456;2022-11-15T05:10:29;12.10;;;1.92;;
16870;SDS011;8552;48.120;-1.456;2022-11-15T05:12:55;8.43;;;1.13;;
16870;SDS011;8552;48.120;-1.456;2022-11-15T05:15:21;3.28;;;1.20;;
16870;SDS011;8552;48.120;-1.456;2022-11-15T05:17:47;5.30;;;1.35;;
16870;SDS011;8552;48.120;-1.456;2022-11-15T05:20:13;9.80;;;1.90;;
16870;SDS011;8552;48.120;-1.456;2022-11-15T05:22:40;6.10;;;2.22;;
16870;SDS011;8552;48.120;-1.456;2022-11-15T05:25:06;4.78;;;1.10;;
16870;SDS011;8552;48.120;-1.456;2022-11-15T05:27:33;10.20;;;1.63;;
16870;SDS011;8552;48.120;-1.456;2022-11-15T05:29:59;9.85;;;1.48;;
16870;SDS011;8552;48.120;-1.456;2022-11-15T05:32:25;6.07;;;2.13;;
16870;SDS011;8552;48.120;-1.456;2022-11-15T05:34:51;3.58;;;1.40;;
16870;SDS011;8552;48.120;-1.456;2022-11-15T05:37:18;10.38;;;2.20;;
16870;SDS011;8552;48.120;-1.456;2022-11-15T05:39:44;9.65;;;2.75;;
16870;SDS011;8552;48.120;-1.456;2022-11-15T05:42:11;6.35;;;1.63;;
16870;SDS011;8552;48.120;-1.456;2022-11-15T05:44:37;10.80;;;1.58;;
16870;SDS011;8552;48.120;-1.456;2022-11-15T05:47:05;7.20;;;1.70;;
16870;SDS011;8552;48.120;-1.456;2022-11-15T05:49:33;7.82;;;2.40;;
16870;SDS011;8552;48.120;-1.456;2022-11-15T05:52:00;9.18;;;2.22;;
16870;SDS011;8552;48.120;-1.456;2022-11-15T05:54:29;10.75;;;2.47;;
16870;SDS011;8552;48.120;-1.456;2022-11-15T05:56:56;9.35;;;2.25;;
16870;SDS011;8552;48.120;-1.456;2022-11-15T05:59:22;7.38;;;2.28;;
16870;SDS011;8552;48.120;-1.456;2022-11-15T06:01:48;7.97;;;2.15;;
16870;SDS011;8552;48.120;-1.456;2022-11-15T06:04:14;7.32;;;2.42;;
16870;SDS011;8552;48.120;-1.456;2022-11-15T06:06:40;8.32;;;2.45;;
16870;SDS011;8552;48.120;-1.456;2022-11-15T06:09:06;6.78;;;2.63;;
16870;SDS011;8552;48.120;-1.456;2022-11-15T06:11:32;7.65;;;3.00;;
16870;SDS011;8552;48.120;-1.456;2022-11-15T06:13:58;7.38;;;2.28;;
16870;SDS011;8552;48.120;-1.456;2022-11-15T06:16:24;6.88;;;2.00;;
16870;SDS011;8552;48.120;-1.456;2022-11-15T06:18:50;10.70;;;2.80;;
16870;SDS011;8552;48.120;-1.456;2022-11-15T06:21:16;8.07;;;2.40;;
16870;SDS011;8552;48.120;-1.456;2022-11-15T06:23:42;9.20;;;2.78;;
16870;SDS011;8552;48.120;-1.456;2022-11-15T06:26:08;7.55;;;2.40;;
16870;SDS011;8552;48.120;-1.456;2022-11-15T06:28:34;6.47;;;2.65;;
16870;SDS011;8552;48.120;-1.456;2022-11-15T06:31:04;8.18;;;2.75;;
16870;SDS011;8552;48.120;-1.456;2022-11-15T06:33:30;8.07;;;3.08;;
16870;SDS011;8552;48.120;-1.456;2022-11-15T06:35:59;6.35;;;2.25;;
16870;SDS011;8552;48.120;-1.456;2022-11-15T06:38:26;9.95;;;3.00;;
16870;SDS011;8552;48.120;-1.456;2022-11-15T06:40:52;10.32;;;3.15;;
16870;SDS011;8552;48.120;-1.456;2022-11-15T06:43:18;5.00;;;2.78;;
16870;SDS011;8552;48.120;-1.456;2022-11-15T06:45:44;11.60;;;3.38;;
16870;SDS011;8552;48.120;-1.456;2022-11-15T06:48:10;13.52;;;3.38;;
16870;SDS011;8552;48.120;-1.456;2022-11-15T06:50:36;8.25;;;2.38;;
16870;SDS011;8552;48.120;-1.456;2022-11-15T06:53:05;7.13;;;2.40;;
16870;SDS011;8552;48.120;-1.456;2022-11-15T06:55:31;7.20;;;3.00;;
16870;SDS011;8552;48.120;-1.456;2022-11-15T06:57:57;8.05;;;2.88;;
16870;SDS011;8552;48.120;-1.456;2022-11-15T07:00:23;10.00;;;3.15;;
16870;SDS011;8552;48.120;-1.456;2022-11-15T07:02:49;5.07;;;2.50;;
16870;SDS011;8552;48.120;-1.456;2022-11-15T07:05:15;9.68;;;2.80;;
16870;SDS011;8552;48.120;-1.456;2022-11-15T07:07:41;7.78;;;3.10;;
16870;SDS011;8552;48.120;-1.456;2022-11-15T07:10:08;7.53;;;2.75;;
16870;SDS011;8552;48.120;-1.456;2022-11-15T07:12:34;8.63;;;2.63;;
16870;SDS011;8552;48.120;-1.456;2022-11-15T07:15:00;6.25;;;2.60;;
16870;SDS011;8552;48.120;-1.456;2022-11-15T07:17:26;8.05;;;3.10;;
16870;SDS011;8552;48.120;-1.456;2022-11-15T07:19:52;8.00;;;2.92;;
16870;SDS011;8552;48.120;-1.456;2022-11-15T07:22:18;4.65;;;2.45;;
16870;SDS011;8552;48.120;-1.456;2022-11-15T07:24:44;3.40;;;2.15;;
16870;SDS011;8552;48.120;-1.456;2022-11-15T07:27:10;6.03;;;2.80;;
16870;SDS011;8552;48.120;-1.456;2022-11-15T07:29:36;6.22;;;2.15;;
16870;SDS011;8552;48.120;-1.456;2022-11-15T07:32:03;6.57;;;2.20;;
16870;SDS011;8552;48.120;-1.456;2022-11-15T07:34:29;4.57;;;2.15;;
16870;SDS011;8552;48.120;-1.456;2022-11-15T07:36:55;5.95;;;2.15;;
16870;SDS011;8552;48.120;-1.456;2022-11-15T07:39:21;3.55;;;2.00;;
16870;SDS011;8552;48.120;-1.456;2022-11-15T07:41:47;5.80;;;2.20;;
16870;SDS011;8552;48.120;-1.456;2022-11-15T07:44:14;5.70;;;2.70;;
16870;SDS011;8552;48.120;-1.456;2022-11-15T07:46:40;2.88;;;2.20;;
16870;SDS011;8552;48.120;-1.456;2022-11-15T07:49:06;7.55;;;2.40;;
16870;SDS011;8552;48.120;-1.456;2022-11-15T07:51:32;6.20;;;2.38;;
16870;SDS011;8552;48.120;-1.456;2022-11-15T07:53:58;6.82;;;2.67;;
16870;SDS011;8552;48.120;-1.456;2022-11-15T07:56:24;4.32;;;2.40;;
16870;SDS011;8552;48.120;-1.456;2022-11-15T07:58:50;3.72;;;2.70;;
16870;SDS011;8552;48.120;-1.456;2022-11-15T08:01:16;4.18;;;2.75;;
16870;SDS011;8552;48.120;-1.456;2022-11-15T08:03:42;4.05;;;2.95;;
16870;SDS011;8552;48.120;-1.456;2022-11-15T08:06:08;5.38;;;2.80;;
16870;SDS011;8552;48.120;-1.456;2022-11-15T08:08:34;7.10;;;3.42;;
16870;SDS011;8552;48.120;-1.456;2022-11-15T08:11:01;5.32;;;3.05;;
16870;SDS011;8552;48.120;-1.456;2022-11-15T08:13:27;5.95;;;3.80;;
16870;SDS011;8552;48.120;-1.456;2022-11-15T08:16:02;4.03;;;2.58;;
16870;SDS011;8552;48.120;-1.456;2022-11-15T08:18:30;4.18;;;2.65;;
16870;SDS011;8552;48.120;-1.456;2022-11-15T08:21:00;5.22;;;2.95;;
16870;SDS011;8552;48.120;-1.456;2022-11-15T08:23:26;3.00;;;2.70;;
16870;SDS011;8552;48.120;-1.456;2022-11-15T08:25:52;5.82;;;3.15;;
16870;SDS011;8552;48.120;-1.456;2022-11-15T08:28:24;3.10;;;2.80;;
16870;SDS011;8552;48.120;-1.456;2022-11-15T08:30:50;3.03;;;2.72;;
16870;SDS011;8552;48.120;-1.456;2022-11-15T08:33:16;6.53;;;2.50;;
16870;SDS011;8552;48.120;-1.456;2022-11-15T08:35:42;6.28;;;2.92;;
16870;SDS011;8552;48.120;-1.456;2022-11-15T08:38:09;3.90;;;2.78;;
16870;SDS011;8552;48.120;-1.456;2022-11-15T08:40:35;4.80;;;2.75;;
16870;SDS011;8552;48.120;-1.456;2022-11-15T08:43:01;4.57;;;2.92;;
16870;SDS011;8552;48.120;-1.456;2022-11-15T08:45:28;2.55;;;2.33;;
16870;SDS011;8552;48.120;-1.456;2022-11-15T08:47:55;3.67;;;2.17;;
16870;SDS011;8552;48.120;-1.456;2022-11-15T08:50:21;4.68;;;2.60;;
16870;SDS011;8552;48.120;-1.456;2022-11-15T08:52:47;2.58;;;2.00;;
16870;SDS011;8552;48.120;-1.456;2022-11-15T08:55:14;4.30;;;2.22;;
16870;SDS011;8552;48.120;-1.456;2022-11-15T08:57:40;3.58;;;2.22;;
16870;SDS011;8552;48.120;-1.456;2022-11-15T09:00:06;4.05;;;2.00;;
16870;SDS011;8552;48.120;-1.456;2022-11-15T09:02:32;2.85;;;2.08;;
16870;SDS011;8552;48.120;-1.456;2022-11-15T09:04:58;4.05;;;2.10;;
16870;SDS011;8552;48.120;-1.456;2022-11-15T09:07:24;2.47;;;2.10;;
16870;SDS011;8552;48.120;-1.456;2022-11-15T09:09:50;2.95;;;2.17;;
16870;SDS011;8552;48.120;-1.456;2022-11-15T09:12:16;5.97;;;2.40;;
16870;SDS011;8552;48.120;-1.456;2022-11-15T09:14:43;2.50;;;2.30;;
16870;SDS011;8552;48.120;-1.456;2022-11-15T09:17:09;3.25;;;2.10;;
16870;SDS011;8552;48.120;-1.456;2022-11-15T09:19:35;4.18;;;2.35;;
16870;SDS011;8552;48.120;-1.456;2022-11-15T09:22:02;7.18;;;3.42;;
16870;SDS011;8552;48.120;-1.456;2022-11-15T09:24:30;3.15;;;2.30;;
16870;SDS011;8552;48.120;-1.456;2022-11-15T09:26:56;4.18;;;2.30;;
16870;SDS011;8552;48.120;-1.456;2022-11-15T09:29:23;4.07;;;2.58;;
16870;SDS011;8552;48.120;-1.456;2022-11-15T09:31:51;3.70;;;2.60;;
16870;SDS011;8552;48.120;-1.456;2022-11-15T09:34:17;4.57;;;2.50;;
16870;SDS011;8552;48.120;-1.456;2022-11-15T09:36:43;4.50;;;2.67;;
16870;SDS011;8552;48.120;-1.456;2022-11-15T09:39:09;6.75;;;2.38;;
16870;SDS011;8552;48.120;-1.456;2022-11-15T09:44:16;4.18;;;2.20;;
16870;SDS011;8552;48.120;-1.456;2022-11-15T09:49:13;4.05;;;2.35;;
16870;SDS011;8552;48.120;-1.456;2022-11-15T09:51:41;4.53;;;2.80;;
16870;SDS011;8552;48.120;-1.456;2022-11-15T09:56:43;3.85;;;2.67;;
16870;SDS011;8552;48.120;-1.456;2022-11-15T09:59:25;4.20;;;2.50;;
16870;SDS011;8552;48.120;-1.456;2022-11-15T10:04:29;3.10;;;2.67;;
16870;SDS011;8552;48.120;-1.456;2022-11-15T10:12:28;6.57;;;2.80;;
16870;SDS011;8552;48.120;-1.456;2022-11-15T10:15:05;10.45;;;3.03;;
16870;SDS011;8552;48.120;-1.456;2022-11-15T10:20:26;5.97;;;2.67;;
16870;SDS011;8552;48.120;-1.456;2022-11-15T10:22:53;5.25;;;2.65;;
16870;SDS011;8552;48.120;-1.456;2022-11-15T10:25:25;4.80;;;2.92;;
16870;SDS011;8552;48.120;-1.456;2022-11-15T10:28:04;5.85;;;3.28;;
16870;SDS011;8552;48.120;-1.456;2022-11-15T10:30:42;8.18;;;3.80;;
16870;SDS011;8552;48.120;-1.456;2022-11-15T10:35:38;7.50;;;3.58;;
16870;SDS011;8552;48.120;-1.456;2022-11-15T10:38:08;5.70;;;3.17;;
16870;SDS011;8552;48.120;-1.456;2022-11-15T10:40:35;3.53;;;3.00;;
16870;SDS011;8552;48.120;-1.456;2022-11-15T10:45:36;5.07;;;2.60;;
16870;SDS011;8552;48.120;-1.456;2022-11-15T10:50:39;7.32;;;2.70;;
16870;SDS011;8552;48.120;-1.456;2022-11-15T10:53:22;9.23;;;2.90;;
16870;SDS011;8552;48.120;-1.456;2022-11-15T10:55:50;8.65;;;2.78;;
16870;SDS011;8552;48.120;-1.456;2022-11-15T11:01:12;5.97;;;2.85;;
16870;SDS011;8552;48.120;-1.456;2022-11-15T11:03:39;5.95;;;2.25;;
16870;SDS011;8552;48.120;-1.456;2022-11-15T11:06:08;13.00;;;3.60;;
16870;SDS011;8552;48.120;-1.456;2022-11-15T11:08:34;4.28;;;2.25;;
16870;SDS011;8552;48.120;-1.456;2022-11-15T11:11:01;10.02;;;2.90;;
16870;SDS011;8552;48.120;-1.456;2022-11-15T11:13:33;5.25;;;2.38;;
16870;SDS011;8552;48.120;-1.456;2022-11-15T11:18:39;6.82;;;2.85;;
16870;SDS011;8552;48.120;-1.456;2022-11-15T11:21:11;4.25;;;1.75;;
16870;SDS011;8552;48.120;-1.456;2022-11-15T11:44:30;10.70;;;2.38;;
16870;SDS011;8552;48.120;-1.456;2022-11-15T11:49:49;8.82;;;1.65;;
16870;SDS011;8552;48.120;-1.456;2022-11-15T11:52:21;3.10;;;1.50;;
16870;SDS011;8552;48.120;-1.456;2022-11-15T12:02:41;4.20;;;1.63;;
16870;SDS011;8552;48.120;-1.456;2022-11-15T12:05:29;5.72;;;2.03;;
16870;SDS011;8552;48.120;-1.456;2022-11-15T12:10:45;7.30;;;1.77;;
16870;SDS011;8552;48.120;-1.456;2022-11-15T12:13:18;8.00;;;1.50;;
16870;SDS011;8552;48.120;-1.456;2022-11-15T12:15:52;11.15;;;2.13;;
16870;SDS011;8552;48.120;-1.456;2022-11-15T12:18:19;6.75;;;2.15;;
16870;SDS011;8552;48.120;-1.456;2022-11-15T12:20:59;8.00;;;2.05;;
16870;SDS011;8552;48.120;-1.456;2022-11-15T12:23:34;10.60;;;1.90;;
16870;SDS011;8552;48.120;-1.456;2022-11-15T12:26:04;3.20;;;1.75;;
16870;SDS011;8552;48.120;-1.456;2022-11-15T12:33:37;8.93;;;1.85;;
16870;SDS011;8552;48.120;-1.456;2022-11-15T12:36:09;9.57;;;2.42;;
16870;SDS011;8552;48.120;-1.456;2022-11-15T12:41:22;6.63;;;1.70;;
16870;SDS011;8552;48.120;-1.456;2022-11-15T12:43:49;8.35;;;1.73;;
16870;SDS011;8552;48.120;-1.456;2022-11-15T12:48:46;9.30;;;1.60;;
16870;SDS011;8552;48.120;-1.456;2022-11-15T12:51:12;6.82;;;1.83;;
16870;SDS011;8552;48.120;-1.456;2022-11-15T12:53:38;10.20;;;3.13;;
16870;SDS011;8552;48.120;-1.456;2022-11-15T13:11:55;13.95;;;4.25;;
16870;SDS011;8552;48.120;-1.456;2022-11-15T13:17:32;7.00;;;2.88;;
16870;SDS011;8552;48.120;-1.456;2022-11-15T13:20:00;9.73;;;1.50;;
16870;SDS011;8552;48.120;-1.456;2022-11-15T13:22:27;5.97;;;1.42;;
16870;SDS011;8552;48.120;-1.456;2022-11-15T13:25:14;11.13;;;1.23;;
16870;SDS011;8552;48.120;-1.456;2022-11-15T13:27:44;6.07;;;1.73;;
16870;SDS011;8552;48.120;-1.456;2022-11-15T13:30:20;3.60;;;1.33;;
16870;SDS011;8552;48.120;-1.456;2022-11-15T13:32:47;7.00;;;1.55;;
16870;SDS011;8552;48.120;-1.456;2022-11-15T13:35:23;7.68;;;1.27;;
16870;SDS011;8552;48.120;-1.456;2022-11-15T13:37:50;6.47;;;1.33;;
16870;SDS011;8552;48.120;-1.456;2022-11-15T13:42:49;8.75;;;1.48;;
16870;SDS011;8552;48.120;-1.456;2022-11-15T13:45:16;6.78;;;1.00;;
16870;SDS011;8552;48.120;-1.456;2022-11-15T13:47:43;11.13;;;1.77;;
16870;SDS011;8552;48.120;-1.456;2022-11-15T13:50:10;6.95;;;1.73;;
16870;SDS011;8552;48.120;-1.456;2022-11-15T13:52:36;4.43;;;1.70;;
16870;SDS011;8552;48.120;-1.456;2022-11-15T14:00:05;3.92;;;1.25;;
16870;SDS011;8552;48.120;-1.456;2022-11-15T14:02:35;7.70;;;1.35;;
16870;SDS011;8552;48.120;-1.456;2022-11-15T14:05:21;6.57;;;1.40;;
16870;SDS011;8552;48.120;-1.456;2022-11-15T14:07:54;5.82;;;0.90;;
16870;SDS011;8552;48.120;-1.456;2022-11-15T14:10:31;9.70;;;2.22;;
16870;SDS011;8552;48.120;-1.456;2022-11-15T14:12:57;7.47;;;1.05;;
16870;SDS011;8552;48.120;-1.456;2022-11-15T14:17:57;4.45;;;1.17;;
16870;SDS011;8552;48.120;-1.456;2022-11-15T14:20:27;6.07;;;1.02;;
16870;SDS011;8552;48.120;-1.456;2022-11-15T14:23:02;10.32;;;1.13;;
16870;SDS011;8552;48.120;-1.456;2022-11-15T14:25:33;4.78;;;1.35;;
16870;SDS011;8552;48.120;-1.456;2022-11-15T14:30:37;4.47;;;1.23;;
16870;SDS011;8552;48.120;-1.456;2022-11-15T14:33:23;4.30;;;1.13;;
16870;SDS011;8552;48.120;-1.456;2022-11-15T14:35:53;6.80;;;1.02;;
16870;SDS011;8552;48.120;-1.456;2022-11-15T14:38:21;4.28;;;0.82;;
16870;SDS011;8552;48.120;-1.456;2022-11-15T14:40:47;6.53;;;1.00;;
16870;SDS011;8552;48.120;-1.456;2022-11-15T14:43:13;3.92;;;1.10;;
16870;SDS011;8552;48.120;-1.456;2022-11-15T14:45:39;5.05;;;0.75;;
16870;SDS011;8552;48.120;-1.456;2022-11-15T14:48:05;5.57;;;1.63;;
16870;SDS011;8552;48.120;-1.456;2022-11-15T14:50:32;2.60;;;0.85;;
16870;SDS011;8552;48.120;-1.456;2022-11-15T14:52:58;2.67;;;1.10;;
16870;SDS011;8552;48.120;-1.456;2022-11-15T14:55:25;2.15;;;0.60;;
16870;SDS011;8552;48.120;-1.456;2022-11-15T14:57:53;3.55;;;0.80;;
16870;SDS011;8552;48.120;-1.456;2022-11-15T15:00:19;4.45;;;0.80;;
16870;SDS011;8552;48.120;-1.456;2022-11-15T15:02:46;3.20;;;0.82;;
16870;SDS011;8552;48.120;-1.456;2022-11-15T15:05:15;3.95;;;1.10;;
16870;SDS011;8552;48.120;-1.456;2022-11-15T15:07:41;5.68;;;0.73;;
16870;SDS011;8552;48.120;-1.456;2022-11-15T15:10:07;3.35;;;0.80;;
16870;SDS011;8552;48.120;-1.456;2022-11-15T15:12:34;4.68;;;1.40;;
16870;SDS011;8552;48.120;-1.456;2022-11-15T15:15:00;5.72;;;0.95;;
16870;SDS011;8552;48.120;-1.456;2022-11-15T15:17:26;2.92;;;0.65;;
16870;SDS011;8552;48.120;-1.456;2022-11-15T15:19:52;4.88;;;0.88;;
16870;SDS011;8552;48.120;-1.456;2022-11-15T15:22:18;6.93;;;0.98;;
16870;SDS011;8552;48.120;-1.456;2022-11-15T15:24:47;1.90;;;0.68;;
16870;SDS011;8552;48.120;-1.456;2022-11-15T15:27:13;1.67;;;0.60;;
16870;SDS011;8552;48.120;-1.456;2022-11-15T15:29:40;6.38;;;0.98;;
16870;SDS011;8552;48.120;-1.456;2022-11-15T15:32:06;2.88;;;0.57;;
16870;SDS011;8552;48.120;-1.456;2022-11-15T15:34:32;5.18;;;1.30;;
16870;SDS011;8552;48.120;-1.456;2022-11-15T15:39:44;4.20;;;0.60;;
16870;SDS011;8552;48.120;-1.456;2022-11-15T15:42:10;1.45;;;0.80;;
16870;SDS011;8552;48.120;-1.456;2022-11-15T15:44:36;3.42;;;1.23;;
16870;SDS011;8552;48.120;-1.456;2022-11-15T15:47:03;4.38;;;1.02;;
16870;SDS011;8552;48.120;-1.456;2022-11-15T15:49:33;9.70;;;1.23;;
16870;SDS011;8552;48.120;-1.456;2022-11-15T15:51:59;2.83;;;0.80;;
16870;SDS011;8552;48.120;-1.456;2022-11-15T15:54:25;3.10;;;0.70;;
16870;SDS011;8552;48.120;-1.456;2022-11-15T15:56:51;4.20;;;0.90;;
16870;SDS011;8552;48.120;-1.456;2022-11-15T15:59:17;2.75;;;1.08;;
16870;SDS011;8552;48.120;-1.456;2022-11-15T16:01:43;3.85;;;0.98;;
16870;SDS011;8552;48.120;-1.456;2022-11-15T16:04:09;4.45;;;0.80;;
16870;SDS011;8552;48.120;-1.456;2022-11-15T16:06:37;5.38;;;1.20;;
16870;SDS011;8552;48.120;-1.456;2022-11-15T16:09:04;7.45;;;1.60;;
16870;SDS011;8552;48.120;-1.456;2022-11-15T16:11:30;9.07;;;1.30;;
16870;SDS011;8552;48.120;-1.456;2022-11-15T16:13:56;3.10;;;0.95;;
16870;SDS011;8552;48.120;-1.456;2022-11-15T16:16:22;4.13;;;1.00;;
16870;SDS011;8552;48.120;-1.456;2022-11-15T16:18:48;4.65;;;1.40;;
16870;SDS011;8552;48.120;-1.456;2022-11-15T16:21:14;6.60;;;0.98;;
16870;SDS011;8552;48.120;-1.456;2022-11-15T16:23:40;4.25;;;0.98;;
16870;SDS011;8552;48.120;-1.456;2022-11-15T16:26:12;6.32;;;1.35;;
16870;SDS011;8552;48.120;-1.456;2022-11-15T16:28:40;2.15;;;1.20;;
16870;SDS011;8552;48.120;-1.456;2022-11-15T16:31:10;6.07;;;1.08;;
16870;SDS011;8552;48.120;-1.456;2022-11-15T16:33:36;5.43;;;1.52;;
16870;SDS011;8552;48.120;-1.456;2022-11-15T16:36:02;3.30;;;1.08;;
16870;SDS011;8552;48.120;-1.456;2022-11-15T16:38:29;6.53;;;1.00;;
16870;SDS011;8552;48.120;-1.456;2022-11-15T16:40:55;6.35;;;1.23;;
16870;SDS011;8552;48.120;-1.456;2022-11-15T16:43:21;4.47;;;1.35;;
16870;SDS011;8552;48.120;-1.456;2022-11-15T16:45:48;6.72;;;1.60;;
16870;SDS011;8552;48.120;-1.456;2022-11-15T16:48:32;9.30;;;2.58;;
16870;SDS011;8552;48.120;-1.456;2022-11-15T16:50:58;6.82;;;2.60;;
16870;SDS011;8552;48.120;-1.456;2022-11-15T16:53:25;9.70;;;2.38;;
16870;SDS011;8552;48.120;-1.456;2022-11-15T16:55:51;10.00;;;2.97;;
16870;SDS011;8552;48.120;-1.456;2022-11-15T16:58:17;6.88;;;1.50;;
16870;SDS011;8552;48.120;-1.456;2022-11-15T17:00:43;6.20;;;1.63;;
16870;SDS011;8552;48.120;-1.456;2022-11-15T17:03:10;6.90;;;2.10;;
16870;SDS011;8552;48.120;-1.456;2022-11-15T17:05:36;5.47;;;2.00;;
16870;SDS011;8552;48.120;-1.456;2022-11-15T17:08:02;7.10;;;2.03;;
16870;SDS011;8552;48.120;-1.456;2022-11-15T17:10:28;7.15;;;1.90;;
16870;SDS011;8552;48.120;-1.456;2022-11-15T17:12:54;7.45;;;1.83;;
16870;SDS011;8552;48.120;-1.456;2022-11-15T17:15:20;4.68;;;1.60;;
16870;SDS011;8552;48.120;-1.456;2022-11-15T17:17:52;6.22;;;1.70;;